createdAt,value
2022-09-05T00:02:03.258Z,2.17
2022-09-05T00:04:50.647Z,2.30
2022-09-05T00:07:34.350Z,2.43
2022-09-05T00:10:21.723Z,2.50
2022-09-05T00:12:50.773Z,2.17
2022-09-05T00:15:56.453Z,2.40
2022-09-05T00:24:17.673Z,2.53
2022-09-05T00:24:30.901Z,2.23
2022-09-05T00:25:06.846Z,2.53
2022-09-05T00:27:49.013Z,2.50
2022-09-05T00:31:07.591Z,2.37
2022-09-05T00:33:32.146Z,2.17
2022-09-05T00:36:31.655Z,2.33
2022-09-05T00:39:06.601Z,2.30
2022-09-05T00:41:34.517Z,2.30
2022-09-05T00:44:02.450Z,2.40
2022-09-05T00:46:37.270Z,2.40
2022-09-05T00:49:30.640Z,2.30
2022-09-05T00:52:18.775Z,2.40
2022-09-05T00:55:10.228Z,2.60
2022-09-05T00:57:45.716Z,2.43
2022-09-05T01:00:17.626Z,2.40
2022-09-05T01:03:20.158Z,2.20
2022-09-05T01:05:54.066Z,2.40
2022-09-05T01:08:27.109Z,2.90
2022-09-05T01:11:18.734Z,2.17
2022-09-05T01:14:01.569Z,2.20
2022-09-05T01:17:07.282Z,2.33
2022-09-05T01:20:18.467Z,2.13
2022-09-05T01:23:08.226Z,2.17
2022-09-05T01:25:54.786Z,2.60
2022-09-05T01:29:16.894Z,2.13
2022-09-05T01:32:00.884Z,2.20
2022-09-05T01:34:39.801Z,2.20
2022-09-05T01:37:26.658Z,2.83
2022-09-05T01:40:21.684Z,2.50
2022-09-05T01:43:12.620Z,2.40
2022-09-05T01:46:09.107Z,2.23
2022-09-05T01:49:00.043Z,2.53
2022-09-05T01:51:41.409Z,2.33
2022-09-05T01:54:29.413Z,2.27
2022-09-05T01:57:31.046Z,2.40
2022-09-05T02:00:15.881Z,2.47
2022-09-05T02:02:51.221Z,2.77
2022-09-05T02:05:49.133Z,2.50
2022-09-05T02:08:15.881Z,2.50
2022-09-05T02:11:11.252Z,2.37
2022-09-05T02:13:37.656Z,2.50
2022-09-05T02:16:13.155Z,2.37
2022-09-05T02:18:54.668Z,2.50
2022-09-05T02:21:56.730Z,2.30
2022-09-05T02:24:32.788Z,2.40
2022-09-05T02:27:40.272Z,2.47
2022-09-05T02:30:12.893Z,2.70
2022-09-05T02:32:47.233Z,2.60
2022-09-05T02:35:23.864Z,2.63
2022-09-05T02:40:27.831Z,2.80
2022-09-05T02:45:13.549Z,2.40
2022-09-05T02:45:24.153Z,2.37
2022-09-05T02:47:27.449Z,2.40
2022-09-05T02:57:23.036Z,2.20
2022-09-05T02:57:35.092Z,2.47
2022-09-05T02:57:44.407Z,2.00
2022-09-05T02:59:31.004Z,2.70
2022-09-05T03:02:40.548Z,2.60
2022-09-05T03:05:16.119Z,2.73
2022-09-05T03:08:11.780Z,2.90
2022-09-05T03:11:00.826Z,3.00
2022-09-05T03:13:54.478Z,2.93
2022-09-05T03:16:49.085Z,3.20
2022-09-05T03:19:49.690Z,2.70
2022-09-05T03:22:27.209Z,2.80
2022-09-05T03:25:31.838Z,2.97
2022-09-05T03:28:28.938Z,2.97
2022-09-05T03:31:27.390Z,2.80
2022-09-05T03:34:15.029Z,2.87
2022-09-05T03:37:08.323Z,2.70
2022-09-05T03:40:16.207Z,2.80
2022-09-05T03:42:58.967Z,2.70
2022-09-05T03:45:37.048Z,2.50
2022-09-05T03:48:29.301Z,2.60
2022-09-05T03:57:04.802Z,3.00
2022-09-05T03:57:15.202Z,2.80
2022-09-05T03:57:38.810Z,2.90
2022-09-05T04:00:34.691Z,2.63
2022-09-05T04:08:09.141Z,2.40
2022-09-05T04:08:15.980Z,2.50
2022-09-05T04:09:31.534Z,2.50
2022-09-05T04:12:17.595Z,2.30
2022-09-05T04:14:53.206Z,2.60
2022-09-05T04:17:42.578Z,2.83
2022-09-05T04:20:30.343Z,2.60
2022-09-05T04:23:17.878Z,2.50
2022-09-05T04:26:10.990Z,2.87
2022-09-05T04:29:04.124Z,2.53
2022-09-05T04:31:45.592Z,2.70
2022-09-05T04:34:34.523Z,2.70
2022-09-05T04:37:04.808Z,2.50
2022-09-05T04:39:33.202Z,2.50
2022-09-05T04:42:05.682Z,2.67
2022-09-05T04:44:35.698Z,2.33
2022-09-05T04:47:26.603Z,2.30
2022-09-05T04:49:59.231Z,2.83
2022-09-05T04:52:49.311Z,3.73
2022-09-05T04:55:26.984Z,2.73
2022-09-05T04:57:58.945Z,2.90
2022-09-05T05:05:58.697Z,2.70
2022-09-05T05:06:13.497Z,2.53
2022-09-05T05:06:45.538Z,3.20
2022-09-05T05:09:48.139Z,2.80
2022-09-05T05:18:01.868Z,3.17
2022-09-05T05:18:11.660Z,2.90
2022-09-05T05:18:54.966Z,2.87
2022-09-05T05:21:28.879Z,2.83
2022-09-05T05:23:57.277Z,2.83
2022-09-05T05:26:42.466Z,2.90
2022-09-05T05:29:37.479Z,2.90
2022-09-05T05:32:05.436Z,2.77
2022-09-05T05:34:37.176Z,2.93
2022-09-05T05:37:21.684Z,3.23
2022-09-05T05:40:10.300Z,2.90
2022-09-05T05:42:39.543Z,2.97
2022-09-05T05:45:23.917Z,2.83
2022-09-05T05:47:59.699Z,2.80
2022-09-05T05:50:49.283Z,3.47
2022-09-05T05:53:43.571Z,2.97
2022-09-05T05:56:40.775Z,3.20
2022-09-05T05:59:56.363Z,3.40
2022-09-05T06:02:35.562Z,3.07
2022-09-05T06:05:33.031Z,2.90
2022-09-05T06:11:18.108Z,2.90
2022-09-05T06:14:55.982Z,3.20
2022-09-05T06:15:10.658Z,3.20
2022-09-05T06:18:20.208Z,3.30
2022-09-05T06:22:07.537Z,3.60
2022-09-05T06:24:08.671Z,3.40
2022-09-05T06:27:02.929Z,2.87
2022-09-05T06:29:46.482Z,3.10
2022-09-05T06:32:25.510Z,3.20
2022-09-05T06:35:03.960Z,3.03
2022-09-05T06:37:58.104Z,3.03
2022-09-05T06:40:32.024Z,2.97
2022-09-05T06:43:01.825Z,3.03
2022-09-05T06:45:39.745Z,3.00
2022-09-05T06:48:44.808Z,3.00
2022-09-05T06:51:37.691Z,2.37
2022-09-05T06:54:20.181Z,2.50
2022-09-05T06:56:59.666Z,2.60
2022-09-05T06:59:53.790Z,2.43
2022-09-05T07:02:58.368Z,2.80
2022-09-05T07:05:44.948Z,2.53
2022-09-05T07:08:44.376Z,2.47
2022-09-05T07:11:15.992Z,2.27
2022-09-05T07:13:53.668Z,2.53
2022-09-05T07:16:39.065Z,2.23
2022-09-05T07:19:14.157Z,2.30
2022-09-05T07:22:07.454Z,2.40
2022-09-05T07:24:56.056Z,2.40
2022-09-05T07:28:25.943Z,2.13
2022-09-05T07:30:31.092Z,2.27
2022-09-05T07:33:00.221Z,2.13
2022-09-05T07:35:31.257Z,2.00
2022-09-05T07:38:14.721Z,1.90
2022-09-05T07:40:49.184Z,1.60
2022-09-05T07:43:23.842Z,1.70
2022-09-05T07:46:02.464Z,1.58
2022-09-05T07:48:35.674Z,1.98
2022-09-05T07:54:59.157Z,2.00
2022-09-05T07:57:02.366Z,1.88
2022-09-05T07:57:26.926Z,1.58
2022-09-05T07:59:48.623Z,1.80
2022-09-05T08:02:15.141Z,2.03
2022-09-05T08:04:42.180Z,1.58
2022-09-05T08:07:48.948Z,1.73
2022-09-05T08:10:31.244Z,1.90
2022-09-05T08:13:23.910Z,1.90
2022-09-05T08:16:10.817Z,1.83
2022-09-05T08:18:51.673Z,1.90
2022-09-05T08:21:27.087Z,1.73
2022-09-05T08:24:13.155Z,1.85
2022-09-05T08:26:48.561Z,1.95
2022-09-05T08:29:31.487Z,2.58
2022-09-05T08:32:37.705Z,1.90
2022-09-05T08:35:33.084Z,1.40
2022-09-05T08:38:00.276Z,1.95
2022-09-05T08:40:38.264Z,1.88
2022-09-05T08:44:27.387Z,1.73
2022-09-05T08:46:48.385Z,1.85
2022-09-05T08:49:43.999Z,1.83
2022-09-05T08:52:21.642Z,1.67
2022-09-05T08:55:11.294Z,1.73
2022-09-05T08:57:58.941Z,1.52
2022-09-05T09:00:31.585Z,1.65
2022-09-05T09:03:25.926Z,1.50
2022-09-05T09:06:14.314Z,1.58
2022-09-05T09:09:05.333Z,1.45
2022-09-05T09:11:57.266Z,1.52
2022-09-05T09:14:30.650Z,1.60
2022-09-05T09:17:23.992Z,1.80
2022-09-05T09:19:57.729Z,1.60
2022-09-05T09:22:37.572Z,1.60
2022-09-05T09:25:14.551Z,1.77
2022-09-05T09:28:48.539Z,1.52
2022-09-05T09:31:16.368Z,1.40
2022-09-05T09:34:31.802Z,1.80
2022-09-05T09:37:25.476Z,1.50
2022-09-05T09:40:22.211Z,1.50
2022-09-05T09:42:53.963Z,1.50
2022-09-05T09:45:29.755Z,1.70
2022-09-05T09:48:02.334Z,1.63
2022-09-05T09:50:58.768Z,1.60
2022-09-05T09:54:03.245Z,1.45
2022-09-05T09:56:54.460Z,1.85
2022-09-05T09:59:54.651Z,1.90
2022-09-05T10:05:44.224Z,1.65
2022-09-05T10:10:35.371Z,1.65
2022-09-05T10:11:22.457Z,1.70
2022-09-05T10:11:53.444Z,1.70
2022-09-05T10:14:49.772Z,1.83
2022-09-05T10:17:29.403Z,1.45
2022-09-05T10:20:29.497Z,1.80
2022-09-05T10:23:33.521Z,2.03
2022-09-05T10:26:35.186Z,1.73
2022-09-05T10:29:38.070Z,1.88
2022-09-05T10:35:11.086Z,1.75
2022-09-05T10:35:24.276Z,1.88
2022-09-05T10:38:10.145Z,1.75
2022-09-05T10:41:05.115Z,1.70
2022-09-05T10:43:29.992Z,1.67
2022-09-05T10:46:39.720Z,2.20
2022-09-05T10:49:09.665Z,1.40
2022-09-05T10:51:56.377Z,1.73
2022-09-05T10:54:39.966Z,1.73
2022-09-05T10:57:24.106Z,1.73
2022-09-05T11:02:19.045Z,1.75
2022-09-05T11:02:58.364Z,1.90
2022-09-05T11:05:38.102Z,1.77
2022-09-05T11:08:11.083Z,1.65
2022-09-05T11:10:59.385Z,1.65
2022-09-05T11:13:49.859Z,1.80
2022-09-05T11:16:25.290Z,1.73
2022-09-05T11:19:18.805Z,1.75
2022-09-05T11:22:04.034Z,1.63
2022-09-05T11:24:50.865Z,1.60
2022-09-05T11:27:36.132Z,1.80
2022-09-05T11:30:08.504Z,1.70
2022-09-05T11:39:45.821Z,1.90
2022-09-05T11:39:51.370Z,1.50
2022-09-05T11:40:10.063Z,1.50
2022-09-05T11:42:40.758Z,1.77
2022-09-05T11:45:51.915Z,1.67
2022-09-05T11:48:53.517Z,1.50
2022-09-05T11:51:47.920Z,1.80
2022-09-05T11:54:49.081Z,1.60
2022-09-05T11:57:44.831Z,1.75
2022-09-05T12:00:31.900Z,1.83
2022-09-05T12:03:59.439Z,1.40
2022-09-05T12:06:57.121Z,1.30
2022-09-05T12:09:26.304Z,1.50
2022-09-05T12:12:18.724Z,1.60
2022-09-05T12:15:26.381Z,1.40
2022-09-05T12:18:19.313Z,1.50
2022-09-05T12:21:21.486Z,1.75
2022-09-05T12:25:25.597Z,1.50
2022-09-05T12:27:45.048Z,1.42
2022-09-05T12:29:52.146Z,1.40
2022-09-05T12:34:52.551Z,1.60
2022-09-05T12:36:07.821Z,1.42
2022-09-05T12:41:32.839Z,1.20
2022-09-05T12:41:43.151Z,1.45
2022-09-05T12:44:41.690Z,1.40
2022-09-05T12:47:17.190Z,1.50
2022-09-05T12:50:03.430Z,1.58
2022-09-05T12:52:45.373Z,1.20
2022-09-05T12:55:20.326Z,1.40
2022-09-05T13:00:46.594Z,1.30
2022-09-05T13:03:14.547Z,1.27
2022-09-05T13:03:48.535Z,1.77
2022-09-05T13:06:33.157Z,1.40
2022-09-05T13:09:10.424Z,1.33
2022-09-05T13:14:53.083Z,1.33
2022-09-05T13:14:56.580Z,1.42
2022-09-05T13:17:44.738Z,1.25
2022-09-05T13:20:35.368Z,1.33
2022-09-05T13:23:05.680Z,1.63
2022-09-05T13:25:36.084Z,1.50
2022-09-05T13:28:06.632Z,1.85
2022-09-05T13:35:08.296Z,1.40
2022-09-05T13:38:06.611Z,1.70
2022-09-05T13:38:19.755Z,1.30
2022-09-05T13:39:22.919Z,1.35
2022-09-05T13:41:54.826Z,1.33
2022-09-05T13:44:26.402Z,1.55
2022-09-05T13:47:00.810Z,1.35
2022-09-05T13:49:51.537Z,1.30
2022-09-05T13:52:33.960Z,1.50
2022-09-05T13:55:22.193Z,1.40
2022-09-05T13:58:01.103Z,1.38
2022-09-05T14:01:01.046Z,1.50
2022-09-05T14:03:55.524Z,1.50
2022-09-05T14:06:45.592Z,1.40
2022-09-05T14:09:39.385Z,1.27
2022-09-05T14:12:32.066Z,1.40
2022-09-05T14:15:24.947Z,1.30
2022-09-05T14:18:21.632Z,1.67
2022-09-05T14:21:19.259Z,1.52
2022-09-05T14:24:03.358Z,1.10
2022-09-05T14:26:35.982Z,1.33
2022-09-05T14:29:26.169Z,1.50
2022-09-05T14:37:50.299Z,1.48
2022-09-05T14:37:50.572Z,1.50
2022-09-05T14:38:14.802Z,1.60
2022-09-05T14:41:19.911Z,1.48
2022-09-05T14:43:58.695Z,1.55
2022-09-05T14:46:28.430Z,1.45
2022-09-05T14:49:18.338Z,1.55
2022-09-05T14:51:47.807Z,1.48
2022-09-05T15:01:44.641Z,1.50
2022-09-05T15:02:54.725Z,1.50
2022-09-05T15:03:03.573Z,1.30
2022-09-05T15:05:50.532Z,1.48
2022-09-05T15:10:57.892Z,1.35
2022-09-05T15:12:16.904Z,1.50
2022-09-05T15:14:11.953Z,1.40
2022-09-05T15:16:43.539Z,1.60
2022-09-05T15:19:30.444Z,2.00
2022-09-05T15:21:57.008Z,1.63
2022-09-05T15:24:29.961Z,1.60
2022-09-05T15:27:02.231Z,1.35
2022-09-05T15:29:33.957Z,1.63
2022-09-05T15:32:26.957Z,1.40
2022-09-05T15:34:56.761Z,1.20
2022-09-05T15:37:30.327Z,1.10
2022-09-05T15:40:00.782Z,1.30
2022-09-05T15:42:31.900Z,1.25
2022-09-05T15:45:10.254Z,1.33
2022-09-05T15:47:43.504Z,1.50
2022-09-05T15:50:21.317Z,1.10
2022-09-05T15:52:55.147Z,1.20
2022-09-05T15:55:24.521Z,1.35
2022-09-05T15:57:55.442Z,1.35
2022-09-05T16:00:34.178Z,1.40
2022-09-05T16:05:30.442Z,1.40
2022-09-05T16:10:37.062Z,1.30
2022-09-05T16:10:39.700Z,1.40
2022-09-05T16:15:20.383Z,1.25
2022-09-05T16:23:13.357Z,1.50
2022-09-05T16:23:23.942Z,1.92
2022-09-05T16:23:41.546Z,1.20
2022-09-05T16:26:25.393Z,1.35
2022-09-05T16:29:10.368Z,1.52
2022-09-05T16:31:50.564Z,1.40
2022-09-05T16:34:43.481Z,1.45
2022-09-05T16:37:21.113Z,1.40
2022-09-05T16:40:13.493Z,1.70
2022-09-05T16:42:57.676Z,2.20
2022-09-05T16:45:36.506Z,1.73
2022-09-05T16:48:42.036Z,1.50
2022-09-05T16:51:28.731Z,1.45
2022-09-05T16:54:21.844Z,1.58
2022-09-05T16:56:53.300Z,1.75
2022-09-05T16:59:21.337Z,1.70
2022-09-05T17:01:56.238Z,1.90
2022-09-05T17:05:03.113Z,1.85
2022-09-05T17:07:39.903Z,11.40
2022-09-05T17:10:11.689Z,5.00
2022-09-05T17:12:40.441Z,3.30
2022-09-05T17:15:39.140Z,2.97
2022-09-05T17:18:25.166Z,2.60
2022-09-05T17:20:56.996Z,2.40
2022-09-05T17:29:21.066Z,2.70
2022-09-05T17:29:24.827Z,2.90
2022-09-05T17:31:14.494Z,2.60
2022-09-05T17:32:35.098Z,2.30
2022-09-05T17:35:17.359Z,2.13
2022-09-05T17:38:14.109Z,2.20
2022-09-05T17:40:55.530Z,2.17
2022-09-05T17:43:29.248Z,2.42
2022-09-05T17:46:12.834Z,2.22
2022-09-05T17:49:16.162Z,2.30
2022-09-05T17:51:51.510Z,2.40
2022-09-05T17:54:27.340Z,2.10
2022-09-05T17:56:53.765Z,2.17
2022-09-05T17:59:20.245Z,2.25
2022-09-05T18:02:01.931Z,2.38
2022-09-05T18:04:49.218Z,2.38
2022-09-05T18:07:29.504Z,2.47
2022-09-05T18:10:14.641Z,2.33
2022-09-05T18:15:34.416Z,2.33
2022-09-05T18:18:05.408Z,2.40
2022-09-05T18:20:44.803Z,2.78
2022-09-05T18:23:37.495Z,2.40
2022-09-05T18:26:06.203Z,2.05
2022-09-05T18:28:50.714Z,1.90
2022-09-05T18:31:41.786Z,2.63
2022-09-05T18:34:31.897Z,2.00
2022-09-05T18:36:58.880Z,1.70
2022-09-05T18:39:29.274Z,1.80
2022-09-05T18:42:26.043Z,1.85
2022-09-05T18:44:59.646Z,1.90
2022-09-05T18:47:52.820Z,1.83
2022-09-05T18:50:29.052Z,2.10
2022-09-05T18:53:10.446Z,2.10
2022-09-05T18:56:14.112Z,2.42
2022-09-05T18:59:15.511Z,2.53
2022-09-05T19:01:52.254Z,2.67
2022-09-05T19:04:49.703Z,2.83
2022-09-05T19:07:26.391Z,3.13
2022-09-05T19:09:59.069Z,2.92
2022-09-05T19:12:33.481Z,3.15
2022-09-05T19:15:14.101Z,2.60
2022-09-05T19:17:47.074Z,2.28
2022-09-05T19:20:31.824Z,2.75
2022-09-05T19:23:13.343Z,3.20
2022-09-05T19:25:57.013Z,2.38
2022-09-05T19:36:20.856Z,2.50
2022-09-05T19:36:53.753Z,2.33
2022-09-05T19:37:09.432Z,2.20
2022-09-05T19:37:29.222Z,1.92
2022-09-05T19:44:09.046Z,2.28
2022-09-05T19:47:37.701Z,2.05
2022-09-05T19:47:41.665Z,2.20
2022-09-05T19:48:34.412Z,1.90
2022-09-05T19:51:16.962Z,2.20
2022-09-05T19:54:03.771Z,2.40
2022-09-05T19:56:38.114Z,2.90
2022-09-05T19:59:34.011Z,2.60
2022-09-05T20:02:02.652Z,2.22
2022-09-05T20:04:38.840Z,2.72
2022-09-05T20:07:17.632Z,2.13
2022-09-05T20:09:47.393Z,2.30
2022-09-05T20:12:29.945Z,2.42
2022-09-05T20:14:57.051Z,2.25
2022-09-05T20:17:32.125Z,1.75
2022-09-05T20:20:17.723Z,1.95
2022-09-05T20:22:50.439Z,1.88
2022-09-05T20:25:42.633Z,1.85
2022-09-05T20:28:13.375Z,2.08
2022-09-05T20:30:51.656Z,2.00
2022-09-05T20:33:24.255Z,1.60
2022-09-05T20:40:49.917Z,2.60
2022-09-05T20:43:14.799Z,2.00
2022-09-05T20:43:16.583Z,2.03
2022-09-05T20:44:24.806Z,2.15
2022-09-05T20:54:04.581Z,2.05
2022-09-05T20:54:14.949Z,2.38
2022-09-05T20:54:27.376Z,2.22
2022-09-05T20:56:19.390Z,2.40
2022-09-05T20:58:50.357Z,2.60
2022-09-05T21:01:22.850Z,2.10
2022-09-05T21:03:56.257Z,2.13
2022-09-05T21:06:27.381Z,1.92
2022-09-05T21:09:07.400Z,2.40
2022-09-05T21:11:34.311Z,2.30
2022-09-05T21:14:03.809Z,2.10
2022-09-05T21:16:35.716Z,2.00
2022-09-05T21:19:02.488Z,2.05
2022-09-05T21:21:31.584Z,1.90
2022-09-05T21:24:12.018Z,1.58
2022-09-05T21:26:48.498Z,1.90
2022-09-05T21:29:22.515Z,2.03
2022-09-05T21:31:59.990Z,2.25
2022-09-05T21:34:32.273Z,2.50
2022-09-05T21:37:07.417Z,2.45
2022-09-05T21:39:58.537Z,1.83
2022-09-05T21:46:25.261Z,1.70
2022-09-05T21:47:37.890Z,5.13
2022-09-05T21:48:06.056Z,2.05
2022-09-05T21:50:48.916Z,1.83
2022-09-05T21:57:53.658Z,1.80
2022-09-05T21:59:27.857Z,1.70
2022-09-05T21:59:33.664Z,2.03
2022-09-05T22:01:54.479Z,1.60
2022-09-05T22:04:21.651Z,1.80
2022-09-05T22:06:48.522Z,1.80
2022-09-05T22:09:17.160Z,2.00
2022-09-05T22:11:43.718Z,1.63
2022-09-05T22:14:10.372Z,1.65
2022-09-05T22:16:41.347Z,2.00
2022-09-05T22:19:12.675Z,1.65
2022-09-05T22:21:40.026Z,1.80
2022-09-05T22:24:09.585Z,1.67
2022-09-05T22:26:46.385Z,1.95
2022-09-05T22:29:34.456Z,1.58
2022-09-05T22:32:01.004Z,1.80
2022-09-05T22:34:30.785Z,1.70
2022-09-05T22:36:57.561Z,1.80
2022-09-05T22:39:36.243Z,1.85
2022-09-05T22:42:09.960Z,1.55
2022-09-05T22:44:38.664Z,1.50
2022-09-05T22:47:05.757Z,1.83
2022-09-05T22:49:32.280Z,1.90
2022-09-05T22:51:58.647Z,1.83
2022-09-05T22:54:25.116Z,1.80
2022-09-05T22:56:51.606Z,2.17
2022-09-05T22:59:17.952Z,1.73
2022-09-05T23:01:44.426Z,1.92
2022-09-05T23:04:10.894Z,2.33
2022-09-05T23:06:37.359Z,1.90
2022-09-05T23:09:04.021Z,2.00
2022-09-05T23:11:30.398Z,1.65
2022-09-05T23:13:56.797Z,1.80
2022-09-05T23:16:23.339Z,2.40
2022-09-05T23:18:49.921Z,1.60
2022-09-05T23:21:16.529Z,2.00
2022-09-05T23:23:42.948Z,1.40
2022-09-05T23:26:12.040Z,2.10
2022-09-05T23:28:43.155Z,2.00
2022-09-05T23:31:10.902Z,1.60
2022-09-05T23:33:37.365Z,1.80
2022-09-05T23:36:09.402Z,1.90
2022-09-05T23:38:36.444Z,1.90
2022-09-05T23:41:05.558Z,1.80
2022-09-05T23:43:32.338Z,2.20
2022-09-05T23:45:58.926Z,2.13
2022-09-05T23:48:26.064Z,2.53
2022-09-05T23:50:52.994Z,1.98
2022-09-05T23:53:19.889Z,1.80
2022-09-05T23:55:46.334Z,1.67
2022-09-05T23:58:14.222Z,1.90
